sensor_id;sensor_type;location;lat;lon;timestamp;pressure;altitude;pressure_sealevel;temperature;humidity
62976;BME280;49071;0.000;0.000;2023-07-24T05:12:09;99991.72;;;23.02;
62976;BME280;49071;0.000;0.000;2023-07-24T05:15:09;99990.69;;;23.03;
62976;BME280;49071;0.000;0.000;2023-07-24T05:18:10;99983.78;;;23.02;
62976;BME280;49071;0.000;0.000;2023-07-24T05:21:10;99985.94;;;23.06;
62976;BME280;49071;0.000;0.000;2023-07-24T05:24:10;99972.44;;;23.09;
62976;BME280;49071;0.000;0.000;2023-07-24T05:27:10;99964.31;;;23.11;
62976;BME280;49071;0.000;0.000;2023-07-24T05:30:12;99962.50;;;23.11;
62976;BME280;49071;0.000;0.000;2023-07-24T05:33:12;99953.78;;;23.11;
62976;BME280;49071;0.000;0.000;2023-07-24T05:36:12;99955.59;;;23.10;
62976;BME280;49071;0.000;0.000;2023-07-24T05:39:12;99955.25;;;23.13;
62976;BME280;49071;0.000;0.000;2023-07-24T05:42:13;99958.53;;;23.15;
62976;BME280;49071;0.000;0.000;2023-07-24T05:45:13;99949.31;;;23.19;
62976;BME280;49071;0.000;0.000;2023-07-24T05:48:14;99938.75;;;23.19;
62976;BME280;49071;0.000;0.000;2023-07-24T05:51:15;99931.47;;;23.21;
62976;BME280;49071;0.000;0.000;2023-07-24T05:54:15;99937.09;;;23.26;
62976;BME280;49071;0.000;0.000;2023-07-24T05:57:15;99918.94;;;23.31;
62976;BME280;49071;0.000;0.000;2023-07-24T06:00:15;99924.72;;;23.26;
62976;BME280;49071;0.000;0.000;2023-07-24T06:03:15;99921.25;;;23.26;
62976;BME280;49071;0.000;0.000;2023-07-24T06:06:16;99913.47;;;23.24;
62976;BME280;49071;0.000;0.000;2023-07-24T06:09:16;99920.44;;;23.25;
62976;BME280;49071;0.000;0.000;2023-07-24T06:12:16;99914.34;;;23.25;
62976;BME280;49071;0.000;0.000;2023-07-24T06:15:16;99914.34;;;23.25;
62976;BME280;49071;0.000;0.000;2023-07-24T06:18:16;99911.69;;;23.25;
62976;BME280;49071;0.000;0.000;2023-07-24T06:21:16;99915.16;;;23.25;
62976;BME280;49071;0.000;0.000;2023-07-24T06:24:17;99914.16;;;23.26;
62976;BME280;49071;0.000;0.000;2023-07-24T06:27:18;99908.88;;;23.26;
62976;BME280;49071;0.000;0.000;2023-07-24T06:30:18;99912.34;;;23.27;
62976;BME280;49071;0.000;0.000;2023-07-24T06:33:18;99911.38;;;23.28;
62976;BME280;49071;0.000;0.000;2023-07-24T06:36:18;99919.09;;;23.29;
62976;BME280;49071;0.000;0.000;2023-07-24T06:39:18;99911.03;;;23.31;
62976;BME280;49071;0.000;0.000;2023-07-24T06:42:18;99905.75;;;23.31;
62976;BME280;49071;0.000;0.000;2023-07-24T06:45:19;99911.84;;;23.31;
62976;BME280;49071;0.000;0.000;2023-07-24T06:48:19;99903.09;;;23.31;
62976;BME280;49071;0.000;0.000;2023-07-24T06:51:19;99907.38;;;23.32;
62976;BME280;49071;0.000;0.000;2023-07-24T06:54:19;99903.75;;;23.33;
62976;BME280;49071;0.000;0.000;2023-07-24T06:57:19;99903.75;;;23.33;
62976;BME280;49071;0.000;0.000;2023-07-24T07:00:20;99899.28;;;23.33;
62976;BME280;49071;0.000;0.000;2023-07-24T07:03:20;99894.84;;;23.34;
62976;BME280;49071;0.000;0.000;2023-07-24T07:06:20;99896.47;;;23.35;
62976;BME280;49071;0.000;0.000;2023-07-24T07:09:20;99897.31;;;23.35;
62976;BME280;49071;0.000;0.000;2023-07-24T07:12:20;99898.13;;;23.36;
62976;BME280;49071;0.000;0.000;2023-07-24T07:15:20;99886.75;;;23.35;
62976;BME280;49071;0.000;0.000;2023-07-24T07:18:21;99892.84;;;23.36;
62976;BME280;49071;0.000;0.000;2023-07-24T07:21:21;99890.88;;;23.38;
62976;BME280;49071;0.000;0.000;2023-07-24T07:24:21;99877.66;;;23.38;
62976;BME280;49071;0.000;0.000;2023-07-24T07:27:21;99881.13;;;23.38;
62976;BME280;49071;0.000;0.000;2023-07-24T07:30:21;99880.31;;;23.38;
62976;BME280;49071;0.000;0.000;2023-07-24T07:33:22;99881.94;;;23.39;
62976;BME280;49071;0.000;0.000;2023-07-24T07:36:22;99876.66;;;23.39;
62976;BME280;49071;0.000;0.000;2023-07-24T07:39:22;99876.66;;;23.39;
62976;BME280;49071;0.000;0.000;2023-07-24T07:42:23;99870.38;;;23.39;
62976;BME280;49071;0.000;0.000;2023-07-24T07:45:23;99865.09;;;23.39;
62976;BME280;49071;0.000;0.000;2023-07-24T07:48:23;99871.88;;;23.42;
62976;BME280;49071;0.000;0.000;2023-07-24T07:51:24;99875.50;;;23.41;
62976;BME280;49071;0.000;0.000;2023-07-24T07:54:25;99883.25;;;23.42;
62976;BME280;49071;0.000;0.000;2023-07-24T07:57:25;99881.25;;;23.44;
62976;BME280;49071;0.000;0.000;2023-07-24T08:00:25;99879.63;;;23.43;
62976;BME280;49071;0.000;0.000;2023-07-24T08:03:26;99880.44;;;23.44;
62976;BME280;49071;0.000;0.000;2023-07-24T08:06:26;99884.72;;;23.45;
62976;BME280;49071;0.000;0.000;2023-07-24T08:09:26;99880.25;;;23.45;
62976;BME280;49071;0.000;0.000;2023-07-24T08:12:26;99874.97;;;23.45;
62976;BME280;49071;0.000;0.000;2023-07-24T08:15:26;99861.78;;;23.45;
62976;BME280;49071;0.000;0.000;2023-07-24T08:18:27;99863.59;;;23.45;
62976;BME280;49071;0.000;0.000;2023-07-24T08:21:27;99874.00;;;23.46;
62976;BME280;49071;0.000;0.000;2023-07-24T08:24:27;99871.53;;;23.45;
62976;BME280;49071;0.000;0.000;2023-07-24T08:27:27;99853.88;;;23.45;
62976;BME280;49071;0.000;0.000;2023-07-24T08:30:28;99853.72;;;23.47;
62976;BME280;49071;0.000;0.000;2023-07-24T08:33:29;99850.91;;;23.48;
62976;BME280;49071;0.000;0.000;2023-07-24T08:36:29;99835.06;;;23.48;
62976;BME280;49071;0.000;0.000;2023-07-24T08:39:30;99838.38;;;23.50;
62976;BME280;49071;0.000;0.000;2023-07-24T08:42:30;99832.28;;;23.50;
62976;BME280;49071;0.000;0.000;2023-07-24T08:45:31;99838.38;;;23.50;
62976;BME280;49071;0.000;0.000;2023-07-24T08:48:32;99834.91;;;23.50;
62976;BME280;49071;0.000;0.000;2023-07-24T08:51:35;99838.56;;;23.49;
62976;BME280;49071;0.000;0.000;2023-07-24T08:54:36;99828.13;;;23.47;
62976;BME280;49071;0.000;0.000;2023-07-24T08:57:39;99826.19;;;23.49;
62976;BME280;49071;0.000;0.000;2023-07-24T09:00:39;99833.41;;;23.47;
62976;BME280;49071;0.000;0.000;2023-07-24T09:03:39;99829.78;;;23.48;
62976;BME280;49071;0.000;0.000;2023-07-24T09:06:40;99824.50;;;23.48;
62976;BME280;49071;0.000;0.000;2023-07-24T09:09:41;99812.28;;;23.47;
62976;BME280;49071;0.000;0.000;2023-07-24T09:12:42;99813.97;;;23.48;
62976;BME280;49071;0.000;0.000;2023-07-24T09:15:43;99813.97;;;23.48;
62976;BME280;49071;0.000;0.000;2023-07-24T09:18:43;99807.84;;;23.48;
62976;BME280;49071;0.000;0.000;2023-07-24T09:21:43;99806.03;;;23.48;
62976;BME280;49071;0.000;0.000;2023-07-24T09:24:50;99804.25;;;23.49;
62976;BME280;49071;0.000;0.000;2023-07-24T09:27:51;99803.41;;;23.48;
62976;BME280;49071;0.000;0.000;2023-07-24T09:30:58;99808.69;;;23.48;
62976;BME280;49071;0.000;0.000;2023-07-24T09:34:00;99796.31;;;23.49;
62976;BME280;49071;0.000;0.000;2023-07-24T09:37:00;99799.78;;;23.49;
62976;BME280;49071;0.000;0.000;2023-07-24T09:40:04;99795.47;;;23.48;
62976;BME280;49071;0.000;0.000;2023-07-24T09:43:13;99785.75;;;23.49;
62976;BME280;49071;0.000;0.000;2023-07-24T09:46:13;99786.59;;;23.49;
62976;BME280;49071;0.000;0.000;2023-07-24T09:49:13;99780.28;;;23.50;
62976;BME280;49071;0.000;0.000;2023-07-24T09:52:14;99777.66;;;23.50;
62976;BME280;49071;0.000;0.000;2023-07-24T09:55:17;99779.28;;;23.51;
62976;BME280;49071;0.000;0.000;2023-07-24T09:58:19;99775.00;;;23.50;
62976;BME280;49071;0.000;0.000;2023-07-24T10:01:21;99775.00;;;23.50;
62976;BME280;49071;0.000;0.000;2023-07-24T10:04:21;99772.22;;;23.52;
62976;BME280;49071;0.000;0.000;2023-07-24T10:07:22;99766.94;;;23.52;
62976;BME280;49071;0.000;0.000;2023-07-24T10:10:22;99766.94;;;23.52;
62976;BME280;49071;0.000;0.000;2023-07-24T10:13:23;99764.31;;;23.52;
62976;BME280;49071;0.000;0.000;2023-07-24T10:16:23;99766.94;;;23.52;
62976;BME280;49071;0.000;0.000;2023-07-24T10:19:23;99758.16;;;23.51;
62976;BME280;49071;0.000;0.000;2023-07-24T10:22:23;99759.03;;;23.52;
62976;BME280;49071;0.000;0.000;2023-07-24T10:25:28;99756.38;;;23.52;
62976;BME280;49071;0.000;0.000;2023-07-24T10:28:32;99751.09;;;23.52;
62976;BME280;49071;0.000;0.000;2023-07-24T10:31:33;99735.25;;;23.52;
62976;BME280;49071;0.000;0.000;2023-07-24T10:34:37;99741.34;;;23.52;
62976;BME280;49071;0.000;0.000;2023-07-24T10:37:37;99737.91;;;23.52;
62976;BME280;49071;0.000;0.000;2023-07-24T10:40:39;99734.41;;;23.51;
62976;BME280;49071;0.000;0.000;2023-07-24T10:43:52;99739.53;;;23.53;
62976;BME280;49071;0.000;0.000;2023-07-24T10:46:52;99732.44;;;23.53;
62976;BME280;49071;0.000;0.000;2023-07-24T10:49:52;99734.06;;;23.54;
62976;BME280;49071;0.000;0.000;2023-07-24T10:52:53;99718.22;;;23.54;
62976;BME280;49071;0.000;0.000;2023-07-24T10:55:53;99711.31;;;23.53;
62976;BME280;49071;0.000;0.000;2023-07-24T10:58:53;99699.75;;;23.54;
62976;BME280;49071;0.000;0.000;2023-07-24T11:01:54;99689.19;;;23.54;
62976;BME280;49071;0.000;0.000;2023-07-24T11:04:54;99686.53;;;23.54;
62976;BME280;49071;0.000;0.000;2023-07-24T11:07:54;99687.34;;;23.55;
62976;BME280;49071;0.000;0.000;2023-07-24T11:10:55;99686.53;;;23.54;
62976;BME280;49071;0.000;0.000;2023-07-24T11:13:56;99662.78;;;23.54;
62976;BME280;49071;0.000;0.000;2023-07-24T11:16:56;99662.63;;;23.56;
62976;BME280;49071;0.000;0.000;2023-07-24T11:20:10;99662.63;;;23.56;
62976;BME280;49071;0.000;0.000;2023-07-24T11:23:10;99652.06;;;23.56;
62976;BME280;49071;0.000;0.000;2023-07-24T11:26:10;99641.50;;;23.56;
62976;BME280;49071;0.000;0.000;2023-07-24T11:29:11;99641.50;;;23.56;
62976;BME280;49071;0.000;0.000;2023-07-24T11:32:12;99640.50;;;23.57;
62976;BME280;49071;0.000;0.000;2023-07-24T11:35:12;99643.13;;;23.57;
62976;BME280;49071;0.000;0.000;2023-07-24T11:38:13;99641.31;;;23.57;
62976;BME280;49071;0.000;0.000;2023-07-24T11:41:13;99631.75;;;23.56;
62976;BME280;49071;0.000;0.000;2023-07-24T11:44:15;99634.22;;;23.58;
62976;BME280;49071;0.000;0.000;2023-07-24T11:47:17;99634.22;;;23.58;
62976;BME280;49071;0.000;0.000;2023-07-24T11:50:17;99621.84;;;23.58;
62976;BME280;49071;0.000;0.000;2023-07-24T11:53:27;99618.22;;;23.59;
62976;BME280;49071;0.000;0.000;2023-07-24T11:56:28;99590.19;;;23.58;
62976;BME280;49071;0.000;0.000;2023-07-24T11:59:36;99602.38;;;23.59;
62976;BME280;49071;0.000;0.000;2023-07-24T12:02:37;99600.72;;;23.58;
62976;BME280;49071;0.000;0.000;2023-07-24T12:05:38;99598.72;;;23.60;
62976;BME280;49071;0.000;0.000;2023-07-24T12:08:38;99595.25;;;23.60;
62976;BME280;49071;0.000;0.000;2023-07-24T12:11:39;99603.84;;;23.62;
62976;BME280;49071;0.000;0.000;2023-07-24T12:14:40;99601.19;;;23.62;
62976;BME280;49071;0.000;0.000;2023-07-24T12:17:40;99599.38;;;23.62;
62976;BME280;49071;0.000;0.000;2023-07-24T12:20:41;99606.28;;;23.63;
62976;BME280;49071;0.000;0.000;2023-07-24T12:23:41;99605.47;;;23.63;
62976;BME280;49071;0.000;0.000;2023-07-24T12:26:41;99596.53;;;23.64;
62976;BME280;49071;0.000;0.000;2023-07-24T12:29:41;99593.06;;;23.63;
62976;BME280;49071;0.000;0.000;2023-07-24T12:32:42;99586.81;;;23.64;
62976;BME280;49071;0.000;0.000;2023-07-24T12:35:42;99581.53;;;23.64;
62976;BME280;49071;0.000;0.000;2023-07-24T12:38:42;99577.06;;;23.65;
62976;BME280;49071;0.000;0.000;2023-07-24T12:41:42;99565.69;;;23.64;
62976;BME280;49071;0.000;0.000;2023-07-24T12:44:42;99573.44;;;23.66;
62976;BME280;49071;0.000;0.000;2023-07-24T12:47:43;99562.88;;;23.66;
62976;BME280;49071;0.000;0.000;2023-07-24T12:50:43;99555.75;;;23.66;
62976;BME280;49071;0.000;0.000;2023-07-24T12:53:44;99553.94;;;23.67;
62976;BME280;49071;0.000;0.000;2023-07-24T12:56:44;99541.56;;;23.67;
62976;BME280;49071;0.000;0.000;2023-07-24T12:59:44;99525.53;;;23.69;
62976;BME280;49071;0.000;0.000;2023-07-24T13:02:44;99516.59;;;23.69;
62976;BME280;49071;0.000;0.000;2023-07-24T13:05:44;99513.81;;;23.71;
62976;BME280;49071;0.000;0.000;2023-07-24T13:08:45;99516.44;;;23.71;
62976;BME280;49071;0.000;0.000;2023-07-24T13:11:45;99519.91;;;23.71;
62976;BME280;49071;0.000;0.000;2023-07-24T13:14:48;99514.63;;;23.71;
62976;BME280;49071;0.000;0.000;2023-07-24T13:17:48;99508.53;;;23.71;
62976;BME280;49071;0.000;0.000;2023-07-24T13:20:48;99504.22;;;23.70;
62976;BME280;49071;0.000;0.000;2023-07-24T13:23:48;99492.69;;;23.71;
62976;BME280;49071;0.000;0.000;2023-07-24T13:26:49;99497.97;;;23.71;
62976;BME280;49071;0.000;0.000;2023-07-24T13:29:49;99499.59;;;23.72;
62976;BME280;49071;0.000;0.000;2023-07-24T13:32:49;99499.59;;;23.72;
62976;BME280;49071;0.000;0.000;2023-07-24T13:35:49;99496.94;;;23.72;
62976;BME280;49071;0.000;0.000;2023-07-24T13:38:50;99500.41;;;23.72;
62976;BME280;49071;0.000;0.000;2023-07-24T13:41:50;99488.84;;;23.73;
62976;BME280;49071;0.000;0.000;2023-07-24T13:44:50;99464.25;;;23.73;
62976;BME280;49071;0.000;0.000;2023-07-24T13:47:50;99462.44;;;23.73;
62976;BME280;49071;0.000;0.000;2023-07-24T13:50:51;99454.53;;;23.73;
62976;BME280;49071;0.000;0.000;2023-07-24T13:53:51;99456.97;;;23.75;
62976;BME280;49071;0.000;0.000;2023-07-24T13:56:53;99459.63;;;23.75;
62976;BME280;49071;0.000;0.000;2023-07-24T13:59:53;99452.50;;;23.75;
62976;BME280;49071;0.000;0.000;2023-07-24T14:02:54;99457.78;;;23.75;
62976;BME280;49071;0.000;0.000;2023-07-24T14:05:54;99448.03;;;23.76;
62976;BME280;49071;0.000;0.000;2023-07-24T14:08:54;99447.06;;;23.77;
62976;BME280;49071;0.000;0.000;2023-07-24T14:11:54;99442.75;;;23.76;
62976;BME280;49071;0.000;0.000;2023-07-24T14:14:54;99449.69;;;23.77;
62976;BME280;49071;0.000;0.000;2023-07-24T14:17:54;99440.75;;;23.78;
62976;BME280;49071;0.000;0.000;2023-07-24T14:20:55;99436.50;;;23.77;
62976;BME280;49071;0.000;0.000;2023-07-24T14:23:56;99413.53;;;23.77;
62976;BME280;49071;0.000;0.000;2023-07-24T14:26:57;99417.00;;;23.78;
62976;BME280;49071;0.000;0.000;2023-07-24T14:29:57;99401.16;;;23.78;
62976;BME280;49071;0.000;0.000;2023-07-24T14:32:58;99403.78;;;23.78;
62976;BME280;49071;0.000;0.000;2023-07-24T14:35:58;99405.41;;;23.79;
62976;BME280;49071;0.000;0.000;2023-07-24T14:38:58;99401.81;;;23.80;
62976;BME280;49071;0.000;0.000;2023-07-24T14:41:58;99389.56;;;23.79;
62976;BME280;49071;0.000;0.000;2023-07-24T14:44:58;99386.78;;;23.80;
62976;BME280;49071;0.000;0.000;2023-07-24T14:48:02;99381.28;;;23.82;
62976;BME280;49071;0.000;0.000;2023-07-24T14:51:02;99372.00;;;23.86;
62976;BME280;49071;0.000;0.000;2023-07-24T14:54:02;99383.03;;;23.89;
62976;BME280;49071;0.000;0.000;2023-07-24T14:57:02;99371.50;;;23.97;
62976;BME280;49071;0.000;0.000;2023-07-24T15:00:03;99372.97;;;23.99;
62976;BME280;49071;0.000;0.000;2023-07-24T15:03:03;99374.81;;;23.98;
62976;BME280;49071;0.000;0.000;2023-07-24T15:06:03;99360.56;;;23.99;
62976;BME280;49071;0.000;0.000;2023-07-24T15:09:06;99359.38;;;24.02;
62976;BME280;49071;0.000;0.000;2023-07-24T15:12:06;99368.41;;;24.07;
62976;BME280;49071;0.000;0.000;2023-07-24T15:15:07;99367.59;;;24.07;
62976;BME280;49071;0.000;0.000;2023-07-24T15:18:07;99370.22;;;24.07;
62976;BME280;49071;0.000;0.000;2023-07-24T15:21:07;99366.75;;;24.06;
62976;BME280;49071;0.000;0.000;2023-07-24T15:24:08;99360.66;;;24.06;
62976;BME280;49071;0.000;0.000;2023-07-24T15:27:09;99368.41;;;24.07;
62976;BME280;49071;0.000;0.000;2023-07-24T15:30:09;99356.81;;;24.08;
62976;BME280;49071;0.000;0.000;2023-07-24T15:33:09;99371.66;;;24.09;
62976;BME280;49071;0.000;0.000;2023-07-24T15:36:09;99370.47;;;24.12;
62976;BME280;49071;0.000;0.000;2023-07-24T15:39:10;99372.13;;;24.13;
62976;BME280;49071;0.000;0.000;2023-07-24T15:42:10;99374.88;;;24.19;
62976;BME280;49071;0.000;0.000;2023-07-24T15:45:10;99375.91;;;24.25;
62976;BME280;49071;0.000;0.000;2023-07-24T15:48:10;99370.84;;;24.23;
62976;BME280;49071;0.000;0.000;2023-07-24T15:51:10;99381.19;;;24.25;
62976;BME280;49071;0.000;0.000;2023-07-24T15:54:11;99374.13;;;24.25;
62976;BME280;49071;0.000;0.000;2023-07-24T15:57:11;99370.63;;;24.25;
62976;BME280;49071;0.000;0.000;2023-07-24T16:00:11;99361.50;;;24.27;
62976;BME280;49071;0.000;0.000;2023-07-24T16:03:11;99378.00;;;24.29;
62976;BME280;49071;0.000;0.000;2023-07-24T16:06:12;99383.28;;;24.29;
62976;BME280;49071;0.000;0.000;2023-07-24T16:09:12;99374.56;;;24.28;
62976;BME280;49071;0.000;0.000;2023-07-24T16:12:13;99361.50;;;24.27;
62976;BME280;49071;0.000;0.000;2023-07-24T16:15:13;99360.31;;;24.29;
62976;BME280;49071;0.000;0.000;2023-07-24T16:18:13;99366.69;;;24.35;
62976;BME280;49071;0.000;0.000;2023-07-24T16:21:13;99368.31;;;24.36;
62976;BME280;49071;0.000;0.000;2023-07-24T16:24:14;99361.41;;;24.35;
62976;BME280;49071;0.000;0.000;2023-07-24T16:27:16;99357.75;;;24.36;
62976;BME280;49071;0.000;0.000;2023-07-24T16:30:17;99361.63;;;24.40;
62976;BME280;49071;0.000;0.000;2023-07-24T16:33:17;99370.84;;;24.44;
62976;BME280;49071;0.000;0.000;2023-07-24T16:36:17;99388.31;;;24.45;
62976;BME280;49071;0.000;0.000;2023-07-24T16:39:17;99411.75;;;24.48;
62976;BME280;49071;0.000;0.000;2023-07-24T16:42:18;99392.22;;;24.49;
62976;BME280;49071;0.000;0.000;2023-07-24T16:45:18;99387.75;;;24.49;
62976;BME280;49071;0.000;0.000;2023-07-24T16:48:18;99369.25;;;24.49;
62976;BME280;49071;0.000;0.000;2023-07-24T16:51:18;99368.25;;;24.50;
62976;BME280;49071;0.000;0.000;2023-07-24T16:54:19;99349.13;;;24.48;
62976;BME280;49071;0.000;0.000;2023-07-24T16:57:19;99344.84;;;24.47;
62976;BME280;49071;0.000;0.000;2023-07-24T17:00:19;99350.56;;;24.51;
62976;BME280;49071;0.000;0.000;2023-07-24T17:03:19;99341.44;;;24.53;
62976;BME280;49071;0.000;0.000;2023-07-24T17:06:21;99344.53;;;24.57;
62976;BME280;49071;0.000;0.000;2023-07-24T17:09:21;99334.75;;;24.57;
62976;BME280;49071;0.000;0.000;2023-07-24T17:12:21;99334.56;;;24.58;
62976;BME280;49071;0.000;0.000;2023-07-24T17:15:21;99321.31;;;24.58;
62976;BME280;49071;0.000;0.000;2023-07-24T17:18:21;99326.19;;;24.55;
62976;BME280;49071;0.000;0.000;2023-07-24T17:21:22;99313.16;;;24.54;
62976;BME280;49071;0.000;0.000;2023-07-24T17:24:22;99302.59;;;24.54;
62976;BME280;49071;0.000;0.000;2023-07-24T17:27:22;99294.66;;;24.54;
62976;BME280;49071;0.000;0.000;2023-07-24T17:30:23;99289.00;;;24.57;
62976;BME280;49071;0.000;0.000;2023-07-24T17:33:23;99273.56;;;24.60;
62976;BME280;49071;0.000;0.000;2023-07-24T17:36:23;99262.78;;;24.61;
62976;BME280;49071;0.000;0.000;2023-07-24T17:39:24;99261.38;;;24.59;
62976;BME280;49071;0.000;0.000;2023-07-24T17:42:24;99249.94;;;24.58;
62976;BME280;49071;0.000;0.000;2023-07-24T17:45:24;99237.75;;;24.57;
62976;BME280;49071;0.000;0.000;2023-07-24T17:48:24;99242.84;;;24.59;
62976;BME280;49071;0.000;0.000;2023-07-24T17:51:25;99244.22;;;24.55;
62976;BME280;49071;0.000;0.000;2023-07-24T17:54:25;99247.09;;;24.54;
62976;BME280;49071;0.000;0.000;2023-07-24T17:57:26;99248.09;;;24.53;
62976;BME280;49071;0.000;0.000;2023-07-24T18:00:26;99254.19;;;24.53;
62976;BME280;49071;0.000;0.000;2023-07-24T18:03:26;99259.09;;;24.56;
62976;BME280;49071;0.000;0.000;2023-07-24T18:06:27;99265.38;;;24.55;
62976;BME280;49071;0.000;0.000;2023-07-24T18:09:27;99256.25;;;24.57;
62976;BME280;49071;0.000;0.000;2023-07-24T18:12:28;99255.22;;;24.58;
62976;BME280;49071;0.000;0.000;2023-07-24T18:15:28;99257.06;;;24.58;
62976;BME280;49071;0.000;0.000;2023-07-24T18:18:28;99254.66;;;24.63;
62976;BME280;49071;0.000;0.000;2023-07-24T18:21:28;99244.47;;;24.60;
62976;BME280;49071;0.000;0.000;2023-07-24T18:24:28;99231.44;;;24.58;
62976;BME280;49071;0.000;0.000;2023-07-24T18:27:29;99234.72;;;24.60;
62976;BME280;49071;0.000;0.000;2023-07-24T18:30:29;99239.19;;;24.60;
62976;BME280;49071;0.000;0.000;2023-07-24T18:33:29;99240.63;;;24.62;
62976;BME280;49071;0.000;0.000;2023-07-24T18:36:29;99248.56;;;24.62;
62976;BME280;49071;0.000;0.000;2023-07-24T18:39:31;99247.38;;;24.65;
62976;BME280;49071;0.000;0.000;2023-07-24T18:42:31;99251.81;;;24.64;
62976;BME280;49071;0.000;0.000;2023-07-24T18:45:31;99261.63;;;24.70;
62976;BME280;49071;0.000;0.000;2023-07-24T18:48:31;99297.41;;;24.66;
62976;BME280;49071;0.000;0.000;2023-07-24T18:51:33;99424.72;;;24.63;
62976;BME280;49071;0.000;0.000;2023-07-24T18:54:33;99542.69;;;24.64;
62976;BME280;49071;0.000;0.000;2023-07-24T18:57:33;99558.00;;;24.69;
62976;BME280;49071;0.000;0.000;2023-07-24T19:00:33;99549.44;;;24.67;
62976;BME280;49071;0.000;0.000;2023-07-24T19:03:33;99575.50;;;24.70;
62976;BME280;49071;0.000;0.000;2023-07-24T19:06:33;99571.25;;;24.69;
62976;BME280;49071;0.000;0.000;2023-07-24T19:09:35;99513.22;;;24.67;
62976;BME280;49071;0.000;0.000;2023-07-24T19:12:36;99506.94;;;24.68;
62976;BME280;49071;0.000;0.000;2023-07-24T19:15:36;99504.31;;;24.68;
62976;BME280;49071;0.000;0.000;2023-07-24T19:18:36;99499.63;;;24.70;
62976;BME280;49071;0.000;0.000;2023-07-24T19:21:36;99533.56;;;24.67;
62976;BME280;49071;0.000;0.000;2023-07-24T19:24:37;99547.22;;;24.70;
62976;BME280;49071;0.000;0.000;2023-07-24T19:27:37;99535.22;;;24.68;
62976;BME280;49071;0.000;0.000;2023-07-24T19:30:37;99533.41;;;24.68;
62976;BME280;49071;0.000;0.000;2023-07-24T19:33:37;99549.44;;;24.67;
62976;BME280;49071;0.000;0.000;2023-07-24T19:36:37;99515.88;;;24.67;
62976;BME280;49071;0.000;0.000;2023-07-24T19:39:38;99497.34;;;24.67;
62976;BME280;49071;0.000;0.000;2023-07-24T19:42:40;99493.91;;;24.67;
62976;BME280;49071;0.000;0.000;2023-07-24T19:45:40;99487.06;;;24.72;
62976;BME280;49071;0.000;0.000;2023-07-24T19:48:40;99472.19;;;24.71;
62976;BME280;49071;0.000;0.000;2023-07-24T19:51:40;99464.44;;;24.70;
62976;BME280;49071;0.000;0.000;2023-07-24T19:54:40;99467.47;;;24.67;
62976;BME280;49071;0.000;0.000;2023-07-24T19:57:41;99458.53;;;24.68;
